createdAt,value
2018-06-24T00:00:54.990Z,23.05
2018-06-24T00:03:25.366Z,25.68
2018-06-24T00:05:55.539Z,26.15
2018-06-24T00:08:25.823Z,18.12
2018-06-24T00:10:55.990Z,30.90
2018-06-24T00:13:26.360Z,23.98
2018-06-24T00:15:56.532Z,20.05
2018-06-24T00:18:26.998Z,21.97
2018-06-24T00:20:57.402Z,21.73
2018-06-24T00:23:27.869Z,16.95
2018-06-24T00:25:58.381Z,19.50
2018-06-24T00:28:28.766Z,19.37
2018-06-24T00:30:58.932Z,18.70
2018-06-24T00:33:29.267Z,19.77
2018-06-24T00:35:59.426Z,14.20
2018-06-24T00:38:29.750Z,14.55
2018-06-24T00:40:59.902Z,18.62
2018-06-24T00:43:30.174Z,14.53
2018-06-24T00:46:00.408Z,19.70
2018-06-24T00:48:30.818Z,18.27
2018-06-24T00:51:01.032Z,16.67
2018-06-24T00:53:31.198Z,13.43
2018-06-24T00:56:01.691Z,17.62
2018-06-24T00:58:32.062Z,17.50
2018-06-24T01:01:02.386Z,16.62
2018-06-24T01:03:39.247Z,16.65
2018-06-24T01:06:09.848Z,21.20
2018-06-24T01:08:40.005Z,27.00
2018-06-24T01:11:10.494Z,19.67
2018-06-24T01:13:40.681Z,16.52
2018-06-24T01:16:11.149Z,25.20
2018-06-24T01:18:41.299Z,18.57
2018-06-24T01:21:11.622Z,18.92
2018-06-24T01:23:41.794Z,19.65
2018-06-24T01:26:12.167Z,15.35
2018-06-24T01:28:42.722Z,24.67
2018-06-24T01:31:13.205Z,20.48
2018-06-24T01:33:43.589Z,18.12
2018-06-24T01:36:14.254Z,21.45
2018-06-24T01:38:44.401Z,22.82
2018-06-24T01:41:14.802Z,15.80
2018-06-24T01:43:45.126Z,23.22
2018-06-24T01:46:15.279Z,19.30
2018-06-24T01:48:45.884Z,22.15
2018-06-24T01:51:16.059Z,16.50
2018-06-24T01:53:46.449Z,19.07
2018-06-24T01:56:16.609Z,17.50
2018-06-24T01:58:46.931Z,14.85
2018-06-24T02:01:17.074Z,15.55
2018-06-24T02:03:47.532Z,13.58
2018-06-24T02:06:17.703Z,18.65
2018-06-24T02:08:47.992Z,16.67
2018-06-24T02:11:18.146Z,15.63
2018-06-24T02:13:48.521Z,16.07
2018-06-24T02:16:18.718Z,14.98
2018-06-24T02:18:49.175Z,15.43
2018-06-24T02:21:19.400Z,11.10
2018-06-24T02:23:49.721Z,19.57
2018-06-24T02:26:19.881Z,15.18
2018-06-24T02:28:50.163Z,12.90
2018-06-24T02:31:20.315Z,15.45
2018-06-24T02:33:50.514Z,13.55
2018-06-24T02:36:20.553Z,20.30
2018-06-24T02:38:50.947Z,15.35
2018-06-24T02:41:21.112Z,12.73
2018-06-24T02:43:51.518Z,13.72
2018-06-24T02:46:21.434Z,13.98
2018-06-24T02:48:51.880Z,16.05
2018-06-24T02:51:22.035Z,10.93
2018-06-24T02:53:52.495Z,21.48
2018-06-24T02:56:22.868Z,11.83
2018-06-24T02:58:53.243Z,14.13
2018-06-24T03:01:23.399Z,14.47
2018-06-24T03:03:53.707Z,17.80
2018-06-24T03:06:23.852Z,17.60
2018-06-24T03:08:54.136Z,15.80
2018-06-24T03:11:24.315Z,13.68
2018-06-24T03:13:54.690Z,13.88
2018-06-24T03:16:25.033Z,11.25
2018-06-24T03:18:55.241Z,21.97
2018-06-24T03:21:25.268Z,17.25
2018-06-24T03:23:55.885Z,12.80
2018-06-24T03:26:26.099Z,18.62
2018-06-24T03:28:56.522Z,16.80
2018-06-24T03:31:26.853Z,21.40
2018-06-24T03:33:57.566Z,15.78
2018-06-24T03:36:27.836Z,14.80
2018-06-24T03:38:57.981Z,9.18
2018-06-24T03:41:28.353Z,19.80
2018-06-24T03:43:58.538Z,15.10
2018-06-24T03:46:28.906Z,11.53
2018-06-24T03:48:59.374Z,10.55
2018-06-24T03:51:29.664Z,16.85
2018-06-24T03:53:59.822Z,16.82
2018-06-24T03:56:30.308Z,19.45
2018-06-24T03:59:00.503Z,13.68
2018-06-24T04:01:31.069Z,20.43
2018-06-24T04:04:01.207Z,20.68
2018-06-24T04:06:31.602Z,13.48
2018-06-24T04:09:01.906Z,15.25
2018-06-24T04:11:38.498Z,10.45
2018-06-24T04:14:08.695Z,11.35
2018-06-24T04:16:39.052Z,16.77
2018-06-24T04:19:09.207Z,16.35
2018-06-24T04:21:39.517Z,9.78
2018-06-24T04:24:09.650Z,15.60
2018-06-24T04:26:40.015Z,13.30
2018-06-24T04:29:10.168Z,17.32
2018-06-24T04:31:40.500Z,17.00
2018-06-24T04:34:10.647Z,14.38
2018-06-24T04:36:41.043Z,18.17
2018-06-24T04:39:11.663Z,17.30
2018-06-24T04:41:42.039Z,19.45
2018-06-24T04:44:12.163Z,14.85
2018-06-24T04:46:42.538Z,12.80
2018-06-24T04:49:13.181Z,11.30
2018-06-24T04:51:43.361Z,19.48
2018-06-24T04:54:13.723Z,14.83
2018-06-24T04:56:43.883Z,12.63
2018-06-24T04:59:14.169Z,9.85
2018-06-24T05:01:44.321Z,16.82
2018-06-24T05:04:14.587Z,11.15
2018-06-24T05:06:44.758Z,11.95
2018-06-24T05:09:15.015Z,16.27
2018-06-24T05:11:45.201Z,14.43
2018-06-24T05:14:15.502Z,18.12
2018-06-24T05:16:45.683Z,14.03
2018-06-24T05:19:15.951Z,10.20
2018-06-24T05:21:46.119Z,16.15
2018-06-24T05:24:16.399Z,15.48
2018-06-24T05:26:46.563Z,14.87
2018-06-24T05:29:16.950Z,13.28
2018-06-24T05:31:47.100Z,16.02
2018-06-24T05:34:17.491Z,15.88
2018-06-24T05:36:47.650Z,21.75
2018-06-24T05:39:18.144Z,13.70
2018-06-24T05:41:48.302Z,18.90
2018-06-24T05:44:18.595Z,16.55
2018-06-24T05:46:48.766Z,11.25
2018-06-24T05:49:19.343Z,15.25
2018-06-24T05:51:49.506Z,12.60
2018-06-24T05:54:19.910Z,14.73
2018-06-24T05:56:50.310Z,14.65
2018-06-24T05:59:20.478Z,11.78
2018-06-24T06:01:50.754Z,16.17
2018-06-24T06:04:20.985Z,14.15
2018-06-24T06:06:51.263Z,21.50
2018-06-24T06:09:21.440Z,12.98
2018-06-24T06:11:52.063Z,17.23
2018-06-24T06:14:22.227Z,11.12
2018-06-24T06:16:53.010Z,14.05
2018-06-24T06:19:23.344Z,12.10
2018-06-24T06:21:53.847Z,16.40
2018-06-24T06:24:23.918Z,16.57
2018-06-24T06:26:54.418Z,12.40
2018-06-24T06:29:24.585Z,17.27
2018-06-24T06:31:55.074Z,14.58
2018-06-24T06:34:25.269Z,16.77
2018-06-24T06:36:55.650Z,13.00
2018-06-24T06:39:25.816Z,10.72
2018-06-24T06:41:56.186Z,15.08
2018-06-24T06:44:26.089Z,16.05
2018-06-24T06:46:56.398Z,12.45
2018-06-24T06:49:26.686Z,9.10
2018-06-24T06:51:57.050Z,10.43
2018-06-24T06:54:27.668Z,12.55
2018-06-24T06:56:58.010Z,12.30
2018-06-24T06:59:28.202Z,8.50
2018-06-24T07:01:58.557Z,3.98
2018-06-24T07:04:28.912Z,6.17
2018-06-24T07:06:59.030Z,8.93
2018-06-24T07:09:29.325Z,5.25
2018-06-24T07:12:00.242Z,4.85
2018-06-24T07:14:30.574Z,2.40
2018-06-24T07:17:00.756Z,7.37
2018-06-24T07:19:31.035Z,5.50
2018-06-24T07:22:01.216Z,4.35
2018-06-24T07:24:31.587Z,2.95
2018-06-24T07:27:08.497Z,3.62
2018-06-24T07:29:38.904Z,3.40
2018-06-24T07:32:09.051Z,2.90
2018-06-24T07:34:39.410Z,3.42
2018-06-24T07:37:09.575Z,4.60
2018-06-24T07:39:39.987Z,4.00
2018-06-24T07:42:10.166Z,4.30
2018-06-24T07:44:40.641Z,5.35
2018-06-24T07:47:10.787Z,6.70
2018-06-24T07:49:41.482Z,2.90
2018-06-24T07:52:11.626Z,8.35
2018-06-24T07:54:41.852Z,4.00
2018-06-24T07:57:11.937Z,10.25
2018-06-24T07:59:42.398Z,3.87
2018-06-24T08:02:12.331Z,4.58
2018-06-24T08:04:42.438Z,2.87
2018-06-24T08:07:12.514Z,2.10
2018-06-24T08:09:42.859Z,4.10
2018-06-24T08:12:13.034Z,5.60
2018-06-24T08:14:43.510Z,3.75
2018-06-24T08:17:13.667Z,2.47
2018-06-24T08:19:44.160Z,3.45
2018-06-24T08:22:14.344Z,2.10
2018-06-24T08:24:44.609Z,3.25
2018-06-24T08:27:14.849Z,2.75
2018-06-24T08:29:45.068Z,4.60
2018-06-24T08:32:15.111Z,2.37
2018-06-24T08:34:45.703Z,2.02
2018-06-24T08:37:15.899Z,3.35
2018-06-24T08:39:46.346Z,3.95
2018-06-24T08:42:16.516Z,4.12
2018-06-24T08:44:46.904Z,2.55
2018-06-24T08:47:17.263Z,3.10
2018-06-24T08:49:47.776Z,3.42
2018-06-24T08:52:18.192Z,1.80
2018-06-24T08:54:48.344Z,3.98
2018-06-24T08:57:18.758Z,2.10
2018-06-24T08:59:48.695Z,4.00
2018-06-24T09:02:18.986Z,2.70
2018-06-24T09:04:49.131Z,2.20
2018-06-24T09:07:19.520Z,6.93
2018-06-24T09:09:49.739Z,3.50
2018-06-24T09:12:20.175Z,4.75
2018-06-24T09:14:50.364Z,2.55
2018-06-24T09:17:20.757Z,2.45
2018-06-24T09:19:50.909Z,2.35
2018-06-24T09:22:21.291Z,4.12
2018-06-24T09:24:52.025Z,2.22
2018-06-24T09:27:22.227Z,5.70
2018-06-24T09:29:52.426Z,2.90
2018-06-24T09:32:22.877Z,2.10
2018-06-24T09:34:53.129Z,2.30
2018-06-24T09:37:23.741Z,2.75
2018-06-24T09:39:53.903Z,3.47
2018-06-24T09:42:24.212Z,2.85
2018-06-24T09:44:54.370Z,2.90
2018-06-24T09:47:24.847Z,3.55
2018-06-24T09:49:55.274Z,7.13
2018-06-24T09:52:25.323Z,2.67
2018-06-24T09:54:55.802Z,4.10
2018-06-24T09:57:25.964Z,4.47
2018-06-24T09:59:56.346Z,4.30
2018-06-24T10:02:26.522Z,4.70
2018-06-24T10:04:57.002Z,8.63
2018-06-24T10:07:27.169Z,2.73
2018-06-24T10:09:57.750Z,5.80
2018-06-24T10:12:27.956Z,3.90
2018-06-24T10:14:58.242Z,2.37
2018-06-24T10:17:28.511Z,3.30
2018-06-24T10:19:58.838Z,3.73
2018-06-24T10:22:29.019Z,6.07
2018-06-24T10:24:59.507Z,7.23
2018-06-24T10:27:29.670Z,4.30
2018-06-24T10:30:00.071Z,2.40
2018-06-24T10:32:30.203Z,2.98
2018-06-24T10:35:00.492Z,6.90
2018-06-24T11:13:28.016Z,5.25
2018-06-24T11:15:58.425Z,2.50
2018-06-24T11:18:35.280Z,4.03
2018-06-24T11:21:06.290Z,15.43
2018-06-24T11:23:36.972Z,5.30
2018-06-24T11:26:07.412Z,3.42
2018-06-24T11:28:37.590Z,6.42
2018-06-24T11:31:08.802Z,8.65
2018-06-24T11:33:38.843Z,9.70
2018-06-24T11:36:09.223Z,6.10
2018-06-24T11:38:39.720Z,6.65
2018-06-24T11:41:10.200Z,6.53
2018-06-24T11:43:40.347Z,6.60
2018-06-24T11:46:10.874Z,4.80
2018-06-24T11:48:41.563Z,4.28
2018-06-24T11:51:11.718Z,6.30
2018-06-24T11:53:42.005Z,7.62
2018-06-24T11:56:12.240Z,12.10
2018-06-24T11:58:42.659Z,8.55
2018-06-24T12:01:12.907Z,8.43
2018-06-24T12:03:43.211Z,5.75
2018-06-24T12:06:13.384Z,8.78
2018-06-24T12:08:43.743Z,6.15
2018-06-24T12:11:13.949Z,7.53
2018-06-24T12:13:44.296Z,4.25
2018-06-24T12:16:14.495Z,4.62
2018-06-24T12:18:44.947Z,5.50
2018-06-24T12:21:15.100Z,6.35
2018-06-24T12:23:45.593Z,4.72
2018-06-24T12:26:15.837Z,3.80
2018-06-24T12:28:46.255Z,12.93
2018-06-24T12:31:16.414Z,4.53
2018-06-24T12:33:46.791Z,6.72
2018-06-24T12:36:17.114Z,9.40
2018-06-24T12:38:47.298Z,2.58
2018-06-24T12:41:17.663Z,2.15
2018-06-24T12:43:47.835Z,12.50
2018-06-24T12:46:18.211Z,2.33
2018-06-24T12:48:48.573Z,3.95
2018-06-24T12:51:18.967Z,4.90
2018-06-24T12:53:49.113Z,5.20
2018-06-24T12:56:19.322Z,5.30
2018-06-24T12:58:49.493Z,5.67
2018-06-24T13:01:19.757Z,2.57
2018-06-24T13:03:49.911Z,3.33
2018-06-24T13:06:20.310Z,8.07
2018-06-24T13:08:50.450Z,5.37
2018-06-24T13:11:20.761Z,5.83
2018-06-24T13:13:50.949Z,4.30
2018-06-24T13:16:21.504Z,7.97
2018-06-24T13:18:51.843Z,11.10
2018-06-24T13:21:22.218Z,2.70
2018-06-24T13:23:52.322Z,7.93
2018-06-24T13:26:22.805Z,6.20
2018-06-24T13:28:53.232Z,3.47
2018-06-24T13:31:23.401Z,7.78
2018-06-24T13:33:53.882Z,5.45
2018-06-24T13:36:24.055Z,5.87
2018-06-24T13:38:54.367Z,3.20
2018-06-24T13:41:24.530Z,6.75
2018-06-24T13:43:55.029Z,2.17
2018-06-24T13:46:25.219Z,5.75
2018-06-24T13:48:55.931Z,2.80
2018-06-24T13:51:26.152Z,5.27
2018-06-24T13:53:56.689Z,4.45
2018-06-24T13:56:27.039Z,2.50
2018-06-24T13:58:57.742Z,3.67
2018-06-24T14:01:27.906Z,4.03
2018-06-24T14:03:58.459Z,2.62
2018-06-24T14:06:28.538Z,4.25
2018-06-24T14:08:58.911Z,4.08
2018-06-24T14:11:29.066Z,2.20
2018-06-24T14:13:59.463Z,5.28
2018-06-24T14:16:29.887Z,3.72
2018-06-24T14:19:00.246Z,7.58
2018-06-24T14:21:30.538Z,2.75
2018-06-24T14:24:01.090Z,2.00
2018-06-24T14:26:31.236Z,3.35
2018-06-24T14:29:01.477Z,4.20
2018-06-24T14:31:31.602Z,3.05
2018-06-24T14:34:01.994Z,7.97
2018-06-24T14:36:32.222Z,6.20
2018-06-24T14:39:02.564Z,7.87
2018-06-24T14:41:32.485Z,3.80
2018-06-24T14:44:02.835Z,7.83
2018-06-24T14:46:33.212Z,4.42
2018-06-24T14:49:03.623Z,5.80
2018-06-24T14:51:34.077Z,3.25
2018-06-24T14:54:04.316Z,3.15
2018-06-24T14:56:34.706Z,4.15
2018-06-24T14:59:04.910Z,4.83
2018-06-24T15:01:35.422Z,6.05
2018-06-24T15:04:05.603Z,4.50
2018-06-24T15:06:36.007Z,3.22
2018-06-24T15:09:09.595Z,4.10
2018-06-24T15:11:40.339Z,8.83
2018-06-24T15:14:10.554Z,10.18
2018-06-24T15:16:40.987Z,3.90
2018-06-24T15:19:11.136Z,5.45
2018-06-24T15:21:41.239Z,3.77
2018-06-24T15:24:11.271Z,4.50
2018-06-24T15:26:41.482Z,4.33
2018-06-24T15:29:11.547Z,5.70
2018-06-24T15:31:41.926Z,4.50
2018-06-24T15:34:12.075Z,4.67
2018-06-24T15:36:42.568Z,6.15
2018-06-24T15:39:13.117Z,11.80
2018-06-24T15:41:44.001Z,9.23
2018-06-24T15:44:14.015Z,8.20
2018-06-24T15:46:44.374Z,4.80
2018-06-24T15:49:14.851Z,8.28
2018-06-24T15:51:45.250Z,6.58
2018-06-24T15:54:15.486Z,3.80
2018-06-24T15:56:46.247Z,7.62
2018-06-24T15:59:16.379Z,3.52
2018-06-24T16:01:46.850Z,7.05
2018-06-24T16:04:17.271Z,5.83
2018-06-24T16:06:47.459Z,10.75
2018-06-24T16:09:23.137Z,7.72
2018-06-24T16:11:58.337Z,6.10
2018-06-24T16:14:33.927Z,7.22
2018-06-24T16:17:09.279Z,5.05
2018-06-24T16:19:44.818Z,8.30
2018-06-24T16:22:20.460Z,12.40
2018-06-24T16:24:56.120Z,5.47
2018-06-24T16:27:31.594Z,6.20
2018-06-24T16:30:06.898Z,6.17
2018-06-24T16:32:42.392Z,6.42
2018-06-24T16:35:18.107Z,6.42
2018-06-24T16:37:53.902Z,5.00
2018-06-24T16:40:29.411Z,7.80
2018-06-24T16:43:05.389Z,7.90
2018-06-24T16:45:41.224Z,9.98
2018-06-24T16:48:16.994Z,14.78
2018-06-24T16:50:52.345Z,12.13
2018-06-24T16:53:27.697Z,6.58
2018-06-24T16:56:03.203Z,5.70
2018-06-24T16:58:38.583Z,6.67
2018-06-24T17:01:14.302Z,11.40
2018-06-24T17:03:49.692Z,5.50
2018-06-24T17:06:25.304Z,7.08
2018-06-24T17:09:00.544Z,8.45
2018-06-24T17:11:36.069Z,6.87
2018-06-24T17:14:11.390Z,4.65
2018-06-24T17:16:46.865Z,9.53
2018-06-24T17:19:22.451Z,7.42
2018-06-24T17:21:58.173Z,6.72
2018-06-24T17:24:33.726Z,8.20
2018-06-24T17:27:09.359Z,8.68
2018-06-24T17:29:44.813Z,6.67
2018-06-24T17:32:20.658Z,9.33
2018-06-24T17:34:56.047Z,6.95
2018-06-24T17:37:31.554Z,7.15
2018-06-24T17:40:06.854Z,6.97
2018-06-24T17:42:42.544Z,9.70
2018-06-24T17:45:17.970Z,7.10
2018-06-24T17:47:54.659Z,8.88
2018-06-24T17:50:29.917Z,9.03
2018-06-24T17:53:05.407Z,9.10
2018-06-24T17:55:40.836Z,6.58
2018-06-24T17:58:16.444Z,7.70
2018-06-24T18:00:51.759Z,7.78
2018-06-24T18:03:27.539Z,12.25
2018-06-24T18:06:02.895Z,6.15
2018-06-24T18:08:38.441Z,9.48
2018-06-24T18:11:13.805Z,5.53
2018-06-24T18:13:49.433Z,7.72
2018-06-24T18:16:24.747Z,9.50
2018-06-24T18:19:00.227Z,11.65
2018-06-24T18:21:35.698Z,14.83
2018-06-24T18:24:11.298Z,8.30
2018-06-24T18:26:46.743Z,6.30
2018-06-24T18:29:22.292Z,9.60
2018-06-24T18:31:57.476Z,11.83
2018-06-24T18:34:33.199Z,17.62
2018-06-24T18:37:08.674Z,8.33
2018-06-24T18:39:44.192Z,9.05
2018-06-24T18:42:19.506Z,5.70
2018-06-24T18:44:54.963Z,9.23
2018-06-24T18:47:30.347Z,24.15
2018-06-24T18:50:06.071Z,7.75
2018-06-24T18:52:41.567Z,5.75
2018-06-24T18:55:17.062Z,5.80
2018-06-24T18:57:52.555Z,7.00
2018-06-24T19:00:28.148Z,9.28
2018-06-24T19:03:03.836Z,8.23
2018-06-24T19:05:39.449Z,13.48
2018-06-24T19:08:14.913Z,8.20
2018-06-24T19:10:50.447Z,14.03
2018-06-24T19:13:25.918Z,13.15
2018-06-24T19:16:01.511Z,11.15
2018-06-24T19:18:36.948Z,10.08
2018-06-24T19:21:12.572Z,10.05
2018-06-24T19:23:47.891Z,12.33
2018-06-24T19:26:23.931Z,13.72
2018-06-24T19:28:59.418Z,10.43
2018-06-24T19:31:35.026Z,12.40
2018-06-24T19:34:10.491Z,12.90
2018-06-24T19:36:46.114Z,32.42
2018-06-24T19:39:21.611Z,11.88
2018-06-24T19:41:57.267Z,27.75
2018-06-24T19:44:32.666Z,23.65
2018-06-24T19:47:08.213Z,9.15
2018-06-24T19:49:43.762Z,9.43
2018-06-24T19:52:19.405Z,19.15
2018-06-24T19:54:54.839Z,13.32
2018-06-24T19:57:30.500Z,11.88
2018-06-24T20:00:06.085Z,13.62
2018-06-24T20:02:41.701Z,17.15
2018-06-24T20:05:17.329Z,19.70
2018-06-24T20:07:53.029Z,12.40
2018-06-24T20:10:28.290Z,13.43
2018-06-24T20:13:03.742Z,31.17
2018-06-24T20:15:39.123Z,16.95
2018-06-24T20:18:14.717Z,19.73
2018-06-24T20:20:50.654Z,11.60
2018-06-24T20:23:26.238Z,18.23
2018-06-24T20:26:01.595Z,15.88
2018-06-24T20:28:37.099Z,16.07
2018-06-24T20:31:12.439Z,11.45
2018-06-24T20:33:47.794Z,10.15
2018-06-24T20:36:23.324Z,26.10
2018-06-24T20:38:58.925Z,18.95
2018-06-24T20:41:34.399Z,19.00
2018-06-24T20:44:09.987Z,15.65
2018-06-24T20:46:45.031Z,19.48
2018-06-24T20:49:20.582Z,13.25
2018-06-24T20:51:56.107Z,21.50
2018-06-24T20:54:31.731Z,21.12
2018-06-24T20:57:07.204Z,24.47
2018-06-24T20:59:42.798Z,17.95
2018-06-24T21:02:18.335Z,22.22
2018-06-24T21:04:54.114Z,17.48
2018-06-24T21:07:29.372Z,18.60
2018-06-24T21:10:04.902Z,17.73
2018-06-24T21:12:39.874Z,23.25
2018-06-24T21:15:15.592Z,34.20
2018-06-24T21:17:51.146Z,38.20
2018-06-24T21:20:26.682Z,17.67
2018-06-24T21:23:02.079Z,14.28
2018-06-24T21:25:37.484Z,17.07
2018-06-24T21:28:13.035Z,32.25
2018-06-24T21:30:48.678Z,31.48
2018-06-24T21:33:24.033Z,22.82
2018-06-24T21:35:59.567Z,24.77
2018-06-24T21:38:35.027Z,20.05
2018-06-24T21:41:10.368Z,23.30
2018-06-24T21:43:45.695Z,21.23
2018-06-24T21:46:21.054Z,13.40
2018-06-24T21:48:56.695Z,18.10
2018-06-24T21:51:32.439Z,34.23
2018-06-24T21:54:07.943Z,19.07
2018-06-24T21:56:43.632Z,20.92
2018-06-24T21:59:19.102Z,36.20
2018-06-24T22:01:54.635Z,26.10
2018-06-24T22:04:29.834Z,27.40
2018-06-24T22:07:05.416Z,18.98
2018-06-24T22:09:40.917Z,14.05
2018-06-24T22:12:16.607Z,31.05
2018-06-24T22:14:51.841Z,32.58
2018-06-24T22:17:27.912Z,23.25
2018-06-24T22:20:03.959Z,20.62
2018-06-24T22:22:39.527Z,29.02
2018-06-24T22:25:15.007Z,44.93
2018-06-24T22:27:50.613Z,26.68
2018-06-24T22:30:26.194Z,30.35
2018-06-24T22:33:01.886Z,18.32
2018-06-24T22:35:37.086Z,21.75
2018-06-24T22:38:12.605Z,19.65
2018-06-24T22:40:48.109Z,18.62
2018-06-24T22:43:23.551Z,26.35
2018-06-24T22:45:58.851Z,26.05
2018-06-24T22:48:34.611Z,32.90
2018-06-24T22:51:10.160Z,26.48
2018-06-24T22:53:45.891Z,18.57
2018-06-24T22:56:21.315Z,16.70
2018-06-24T22:59:14.293Z,17.70
2018-06-24T23:01:49.612Z,19.30
2018-06-24T23:04:25.078Z,20.60
2018-06-24T23:07:00.558Z,15.95
2018-06-24T23:09:35.971Z,18.52
2018-06-24T23:12:11.471Z,19.80
2018-06-24T23:14:47.179Z,20.23
2018-06-24T23:17:22.503Z,22.13
2018-06-24T23:19:58.160Z,27.15
2018-06-24T23:22:33.594Z,18.12
2018-06-24T23:25:09.373Z,25.35
2018-06-24T23:27:44.804Z,14.03
2018-06-24T23:30:20.453Z,17.05
2018-06-24T23:32:55.887Z,19.45
2018-06-24T23:35:31.444Z,21.70
2018-06-24T23:38:06.715Z,23.80
2018-06-24T23:40:42.438Z,18.67
2018-06-24T23:43:17.909Z,29.67
2018-06-24T23:45:53.443Z,17.23
2018-06-24T23:48:29.099Z,17.82
2018-06-24T23:51:04.931Z,19.87
2018-06-24T23:53:40.480Z,17.85
2018-06-24T23:56:16.203Z,21.62
2018-06-24T23:58:51.506Z,18.37
